ンジャメナ の空港の天気 - METARとTAF

ンジャメナ国際空港 ( FTTJ / NDJ ) - チャド ンジャメナ
飛行場実況気象(Metar)
観測時間08/25 17:00 WAT (08/25 16:00 UTC)
風向・風速北 7m/s
視程8000m
天気現象
全天の4割程度の雲 雲底高度 610m
少しの雲 雲底高度 1220m
気温25℃
湿度83%
気圧1013hPa
METARFTTJ 251600Z 01013KT 8000 TS SCT020 FEW040CB 25/22 Q1013 TEMPO 4000 TSRA
過去の天気等 Google飛行場航空写真 Wunderground天気予報

過去48時間のMETAR

飛行場予報(TAF)
発表時間: 8/25 12:00 WAT (8/25 11:00 UTC)
予報対象時間: 25日13時 WAT ~ 26日19時 WAT
風向・風速南西 41m/s
視程10km以上
全天の4割程度の雲 雲底高度 790m
少しの積乱雲 雲底高度 1520m
25日14時 WAT ~ 25日23時 WAT に一時的に
視程3000m
天気現象雷雨
26日12時 WAT ~ 26日19時 WAT に 確率 30% で一時的に
視程4000m
天気現象雷雨
TAF FTTJ 251100Z 2512/2618 22080KT 9999 SCT026 FEW050CB
TEMPO 2513/2522 3000 TSRA
PROB30 TEMPO 2611/2618 4000 TSRA